createdAt,value
2017-07-07T00:00:37.320Z,0
2017-07-07T00:01:46.243Z,0
2017-07-07T00:02:55.174Z,0
2017-07-07T00:04:04.094Z,0
2017-07-07T00:05:13.014Z,0
2017-07-07T00:06:21.943Z,0
2017-07-07T00:07:30.953Z,0
2017-07-07T00:08:39.880Z,0
2017-07-07T00:09:48.890Z,0
2017-07-07T00:10:57.816Z,0
2017-07-07T00:12:06.735Z,0
2017-07-07T00:13:15.662Z,0
2017-07-07T00:14:24.588Z,0
2017-07-07T00:15:33.837Z,0
2017-07-07T00:16:42.765Z,0
2017-07-07T00:17:51.688Z,0
2017-07-07T00:19:00.606Z,0
2017-07-07T00:20:09.529Z,0
2017-07-07T00:21:18.449Z,0
2017-07-07T00:22:27.368Z,0
2017-07-07T00:23:36.284Z,0
2017-07-07T00:24:45.207Z,0
2017-07-07T00:25:54.132Z,0
2017-07-07T00:27:03.051Z,0
2017-07-07T00:28:11.971Z,0
2017-07-07T00:29:20.895Z,0
2017-07-07T00:30:29.818Z,0
2017-07-07T00:31:38.747Z,0
2017-07-07T00:32:47.668Z,0
2017-07-07T00:33:56.597Z,0
2017-07-07T00:35:05.514Z,0
2017-07-07T00:36:14.438Z,0
2017-07-07T00:37:23.358Z,0
2017-07-07T00:38:32.279Z,0
2017-07-07T00:39:41.199Z,0
2017-07-07T00:40:50.130Z,0
2017-07-07T00:41:59.053Z,0
2017-07-07T00:43:07.973Z,0
2017-07-07T00:44:16.896Z,0
2017-07-07T00:45:25.813Z,0
2017-07-07T00:46:34.734Z,0
2017-07-07T00:47:43.650Z,0
2017-07-07T00:48:52.575Z,0
2017-07-07T00:50:01.497Z,0
2017-07-07T00:51:10.416Z,0
2017-07-07T00:52:19.337Z,0
2017-07-07T00:53:28.257Z,0
2017-07-07T00:54:37.181Z,0
2017-07-07T00:55:46.107Z,0
2017-07-07T00:56:55.023Z,0
2017-07-07T00:58:03.949Z,0
2017-07-07T00:59:12.866Z,0
2017-07-07T01:00:21.783Z,0
2017-07-07T01:01:30.700Z,0
2017-07-07T01:02:39.620Z,0
2017-07-07T01:03:48.542Z,0
2017-07-07T01:04:57.460Z,0
2017-07-07T01:06:06.383Z,0
2017-07-07T01:07:15.309Z,0
2017-07-07T01:08:24.236Z,0
2017-07-07T01:09:33.162Z,0
2017-07-07T01:10:42.088Z,0
2017-07-07T01:11:51.011Z,0
2017-07-07T01:13:00.264Z,0
2017-07-07T01:14:09.187Z,0
2017-07-07T01:15:18.106Z,0
2017-07-07T01:16:27.025Z,0
2017-07-07T01:17:35.949Z,0
2017-07-07T01:18:44.865Z,0
2017-07-07T01:19:53.787Z,0
2017-07-07T01:21:02.710Z,0
2017-07-07T01:22:11.633Z,0
2017-07-07T01:23:20.552Z,0
2017-07-07T01:24:29.479Z,0
2017-07-07T01:25:38.403Z,0
2017-07-07T01:26:47.324Z,0
2017-07-07T01:27:56.254Z,0
2017-07-07T01:29:05.170Z,0
2017-07-07T01:30:14.091Z,0
2017-07-07T01:31:23.014Z,0
2017-07-07T01:32:31.935Z,0
2017-07-07T01:33:55.824Z,0
2017-07-07T01:35:04.745Z,0
2017-07-07T01:36:13.667Z,0
2017-07-07T01:37:22.596Z,0
2017-07-07T01:38:31.523Z,0
2017-07-07T01:39:40.536Z,0
2017-07-07T01:40:49.459Z,0
2017-07-07T01:41:58.384Z,0
2017-07-07T01:43:07.299Z,0
2017-07-07T01:44:16.221Z,0
2017-07-07T01:45:25.141Z,0
2017-07-07T01:46:34.059Z,0
2017-07-07T01:47:42.987Z,0
2017-07-07T01:48:51.910Z,0
2017-07-07T01:50:00.832Z,0
2017-07-07T01:51:09.801Z,0
2017-07-07T01:52:18.678Z,0
2017-07-07T01:53:27.603Z,0
2017-07-07T01:54:36.532Z,0
2017-07-07T01:55:45.451Z,0
2017-07-07T01:56:54.375Z,0
2017-07-07T01:58:03.300Z,0
2017-07-07T01:59:12.225Z,0
2017-07-07T02:00:21.151Z,0
2017-07-07T02:01:30.074Z,0
2017-07-07T02:02:39.002Z,0
2017-07-07T02:03:47.931Z,0
2017-07-07T02:04:56.850Z,0
2017-07-07T02:06:05.769Z,0
2017-07-07T02:07:14.696Z,0
2017-07-07T02:08:23.615Z,0
2017-07-07T02:09:32.536Z,0
2017-07-07T02:10:41.458Z,0
2017-07-07T02:11:50.381Z,0
2017-07-07T02:12:59.304Z,0
2017-07-07T02:14:08.228Z,0
2017-07-07T02:15:17.145Z,0
2017-07-07T02:16:26.067Z,0
2017-07-07T02:17:34.980Z,0
2017-07-07T02:18:43.903Z,0
2017-07-07T02:19:52.821Z,0
2017-07-07T02:21:01.740Z,0
2017-07-07T02:22:10.670Z,0
2017-07-07T02:23:19.597Z,0
2017-07-07T02:24:28.516Z,0
2017-07-07T02:25:37.443Z,0
2017-07-07T02:26:46.369Z,0
2017-07-07T02:27:55.290Z,0
2017-07-07T02:29:04.210Z,4
2017-07-07T02:30:13.131Z,4
2017-07-07T02:31:22.394Z,0
2017-07-07T02:32:31.313Z,0
2017-07-07T02:33:40.240Z,0
2017-07-07T02:34:49.158Z,4
2017-07-07T02:35:58.082Z,4
2017-07-07T02:37:06.997Z,4
2017-07-07T02:38:15.919Z,4
2017-07-07T02:39:24.842Z,4
2017-07-07T02:40:33.763Z,4
2017-07-07T02:41:42.682Z,8
2017-07-07T02:42:51.600Z,8
2017-07-07T02:44:00.527Z,4
2017-07-07T02:45:09.450Z,8
2017-07-07T02:46:18.375Z,8
2017-07-07T02:47:27.298Z,12
2017-07-07T02:48:36.225Z,8
2017-07-07T02:49:45.152Z,12
2017-07-07T02:50:54.079Z,12
2017-07-07T02:52:03.003Z,16
2017-07-07T02:53:11.923Z,12
2017-07-07T02:54:20.848Z,20
2017-07-07T02:55:29.765Z,20
2017-07-07T02:56:38.683Z,20
2017-07-07T02:57:47.608Z,24
2017-07-07T02:58:56.528Z,24
2017-07-07T03:00:05.443Z,28
2017-07-07T03:01:14.364Z,28
2017-07-07T03:02:23.278Z,36
2017-07-07T03:03:32.192Z,32
2017-07-07T03:04:41.111Z,36
2017-07-07T03:05:50.035Z,40
2017-07-07T03:06:58.959Z,44
2017-07-07T03:08:07.878Z,44
2017-07-07T03:09:16.806Z,48
2017-07-07T03:10:25.726Z,56
2017-07-07T03:11:34.643Z,64
2017-07-07T03:12:43.563Z,72
2017-07-07T03:13:52.486Z,84
2017-07-07T03:15:01.413Z,92
2017-07-07T03:16:10.333Z,100
2017-07-07T03:17:19.253Z,108
2017-07-07T03:18:28.179Z,116
2017-07-07T03:19:37.096Z,128
2017-07-07T03:20:46.020Z,132
2017-07-07T03:21:54.949Z,136
2017-07-07T03:23:03.871Z,144
2017-07-07T03:24:12.797Z,140
2017-07-07T03:25:21.724Z,136
2017-07-07T03:26:30.652Z,140
2017-07-07T03:27:39.576Z,144
2017-07-07T03:28:48.489Z,144
2017-07-07T03:29:57.419Z,152
2017-07-07T03:31:06.349Z,168
2017-07-07T03:32:15.602Z,188
2017-07-07T03:33:24.607Z,204
2017-07-07T03:34:33.539Z,220
2017-07-07T03:35:42.459Z,224
2017-07-07T03:36:51.384Z,224
2017-07-07T03:38:00.304Z,236
2017-07-07T03:39:09.229Z,248
2017-07-07T03:40:18.151Z,260
2017-07-07T03:41:27.072Z,260
2017-07-07T03:42:35.998Z,260
2017-07-07T03:43:44.916Z,256
2017-07-07T03:44:53.924Z,268
2017-07-07T03:46:02.845Z,276
2017-07-07T03:47:11.764Z,272
2017-07-07T03:48:20.691Z,260
2017-07-07T03:49:29.610Z,244
2017-07-07T03:50:38.535Z,236
2017-07-07T03:51:47.461Z,248
2017-07-07T03:52:56.378Z,256
2017-07-07T03:54:05.300Z,268
2017-07-07T03:55:14.224Z,284
2017-07-07T03:56:23.148Z,280
2017-07-07T03:57:32.065Z,276
2017-07-07T03:58:40.995Z,268
2017-07-07T03:59:49.923Z,256
2017-07-07T04:00:58.849Z,252
2017-07-07T04:02:07.775Z,244
2017-07-07T04:03:16.686Z,248
2017-07-07T04:04:25.607Z,248
2017-07-07T04:05:34.525Z,256
2017-07-07T04:06:43.458Z,256
2017-07-07T04:07:52.381Z,260
2017-07-07T04:09:01.303Z,256
2017-07-07T04:10:10.227Z,232
2017-07-07T04:11:19.143Z,200
2017-07-07T04:12:28.056Z,196
2017-07-07T04:13:36.979Z,212
2017-07-07T04:14:45.894Z,224
2017-07-07T04:15:54.816Z,256
2017-07-07T04:17:03.742Z,332
2017-07-07T04:18:12.657Z,368
2017-07-07T04:19:21.569Z,380
2017-07-07T04:20:30.493Z,392
2017-07-07T04:21:39.416Z,400
2017-07-07T04:22:48.338Z,372
2017-07-07T04:23:57.267Z,336
2017-07-07T04:25:06.185Z,412
2017-07-07T04:26:15.103Z,492
2017-07-07T04:27:24.027Z,536
2017-07-07T04:28:32.948Z,572
2017-07-07T04:29:41.864Z,592
2017-07-07T04:30:50.792Z,604
2017-07-07T04:32:00.037Z,624
2017-07-07T04:33:08.962Z,628
2017-07-07T04:34:17.883Z,612
2017-07-07T04:35:26.800Z,596
2017-07-07T04:36:35.718Z,564
2017-07-07T04:37:44.640Z,536
2017-07-07T04:38:53.647Z,536
2017-07-07T04:40:02.575Z,532
2017-07-07T04:41:11.496Z,528
2017-07-07T04:42:20.415Z,544
2017-07-07T04:43:29.337Z,516
2017-07-07T04:44:38.267Z,476
2017-07-07T04:45:47.191Z,396
2017-07-07T04:46:56.110Z,352
2017-07-07T04:48:05.038Z,344
2017-07-07T04:49:14.046Z,352
2017-07-07T04:50:22.966Z,364
2017-07-07T04:51:31.893Z,368
2017-07-07T04:52:40.814Z,376
2017-07-07T04:53:49.747Z,368
2017-07-07T04:54:58.678Z,376
2017-07-07T04:56:07.607Z,324
2017-07-07T04:57:16.533Z,312
2017-07-07T04:58:25.454Z,304
2017-07-07T04:59:34.374Z,308
2017-07-07T05:00:43.296Z,280
2017-07-07T05:01:52.221Z,276
2017-07-07T05:03:01.142Z,268
2017-07-07T05:04:10.062Z,240
2017-07-07T05:05:18.976Z,244
2017-07-07T05:06:27.904Z,224
2017-07-07T05:07:37.161Z,188
2017-07-07T05:08:46.080Z,180
2017-07-07T05:09:55.002Z,192
2017-07-07T05:11:03.932Z,196
2017-07-07T05:12:12.850Z,212
2017-07-07T05:13:21.770Z,236
2017-07-07T05:14:30.704Z,224
2017-07-07T05:15:39.625Z,216
2017-07-07T05:16:48.549Z,216
2017-07-07T05:17:57.470Z,220
2017-07-07T05:19:06.486Z,220
2017-07-07T05:20:15.406Z,216
2017-07-07T05:21:24.337Z,240
2017-07-07T05:22:33.264Z,252
2017-07-07T05:23:42.179Z,244
2017-07-07T05:24:51.104Z,252
2017-07-07T05:26:00.025Z,240
2017-07-07T05:27:08.948Z,248
2017-07-07T05:28:17.864Z,240
2017-07-07T05:29:26.788Z,228
2017-07-07T05:30:35.713Z,228
2017-07-07T05:31:44.638Z,216
2017-07-07T05:32:53.555Z,192
2017-07-07T05:34:02.475Z,188
2017-07-07T05:35:11.393Z,180
2017-07-07T05:36:20.322Z,184
2017-07-07T05:37:29.240Z,184
2017-07-07T05:38:38.158Z,176
2017-07-07T05:39:47.083Z,184
2017-07-07T05:40:56.004Z,200
2017-07-07T05:42:04.926Z,208
2017-07-07T05:43:13.847Z,232
2017-07-07T05:44:22.771Z,280
2017-07-07T05:45:31.694Z,356
2017-07-07T05:46:40.614Z,424
2017-07-07T05:47:49.534Z,464
2017-07-07T05:48:58.462Z,528
2017-07-07T05:50:07.380Z,552
2017-07-07T05:51:16.296Z,552
2017-07-07T05:52:25.548Z,488
2017-07-07T05:53:34.554Z,392
2017-07-07T05:54:43.476Z,368
2017-07-07T05:55:52.396Z,368
2017-07-07T05:57:01.323Z,368
2017-07-07T05:58:10.241Z,420
2017-07-07T05:59:19.163Z,636
2017-07-07T06:00:28.085Z,760
2017-07-07T06:01:37.006Z,852
2017-07-07T06:02:46.007Z,780
2017-07-07T06:03:54.927Z,680
2017-07-07T06:05:03.933Z,568
2017-07-07T06:06:12.850Z,600
2017-07-07T06:07:21.768Z,608
2017-07-07T06:08:30.687Z,600
2017-07-07T06:09:39.616Z,644
2017-07-07T06:10:48.537Z,624
2017-07-07T06:11:57.461Z,540
2017-07-07T06:13:06.380Z,492
2017-07-07T06:14:15.308Z,524
2017-07-07T06:15:24.231Z,532
2017-07-07T06:16:33.156Z,652
2017-07-07T06:17:42.080Z,672
2017-07-07T06:18:50.998Z,680
2017-07-07T06:19:59.915Z,672
2017-07-07T06:21:08.833Z,684
2017-07-07T06:22:17.754Z,764
2017-07-07T06:23:26.676Z,832
2017-07-07T06:24:35.597Z,884
2017-07-07T06:25:44.515Z,928
2017-07-07T06:26:53.444Z,916
2017-07-07T06:28:02.370Z,868
2017-07-07T06:29:11.290Z,892
2017-07-07T06:30:20.211Z,968
2017-07-07T06:31:29.128Z,1056
2017-07-07T06:32:38.047Z,1152
2017-07-07T06:33:46.965Z,1384
2017-07-07T06:34:55.883Z,1592
2017-07-07T06:36:04.811Z,1600
2017-07-07T06:37:13.735Z,1560
2017-07-07T06:38:22.661Z,1608
2017-07-07T06:39:31.582Z,1644
2017-07-07T06:40:40.499Z,1560
2017-07-07T06:41:49.417Z,1472
2017-07-07T06:42:58.338Z,1520
2017-07-07T06:44:07.258Z,1592
2017-07-07T06:45:16.179Z,1720
2017-07-07T06:46:25.104Z,1748
2017-07-07T06:47:34.029Z,1676
2017-07-07T06:48:42.952Z,1716
2017-07-07T06:49:51.882Z,1840
2017-07-07T06:51:00.890Z,1752
2017-07-07T06:52:09.813Z,1520
2017-07-07T06:53:18.735Z,1372
2017-07-07T06:54:27.664Z,1040
2017-07-07T06:55:36.588Z,1008
2017-07-07T06:56:45.506Z,820
2017-07-07T06:57:54.426Z,684
2017-07-07T06:59:03.350Z,612
2017-07-07T07:00:12.270Z,552
2017-07-07T07:01:21.194Z,500
2017-07-07T07:02:30.117Z,528
2017-07-07T07:03:39.042Z,480
2017-07-07T07:04:47.960Z,440
2017-07-07T07:05:56.875Z,416
2017-07-07T07:07:05.804Z,420
2017-07-07T07:08:14.722Z,436
2017-07-07T07:09:23.644Z,496
2017-07-07T07:10:32.572Z,516
2017-07-07T07:11:41.494Z,516
2017-07-07T07:12:50.587Z,500
2017-07-07T07:13:59.511Z,520
2017-07-07T07:15:08.437Z,528
2017-07-07T07:16:17.363Z,560
2017-07-07T07:17:26.281Z,576
2017-07-07T07:18:35.289Z,608
2017-07-07T07:19:44.209Z,636
2017-07-07T07:20:53.129Z,588
2017-07-07T07:22:02.046Z,676
2017-07-07T07:23:10.966Z,840
2017-07-07T07:24:19.881Z,768
2017-07-07T07:25:28.799Z,788
2017-07-07T07:26:37.722Z,924
2017-07-07T07:27:46.643Z,960
2017-07-07T07:28:55.565Z,768
2017-07-07T07:30:04.481Z,676
2017-07-07T07:31:13.404Z,680
2017-07-07T07:32:22.327Z,680
2017-07-07T07:33:31.250Z,532
2017-07-07T07:34:40.174Z,536
2017-07-07T07:35:49.098Z,592
2017-07-07T07:36:58.026Z,648
2017-07-07T07:38:06.945Z,704
2017-07-07T07:39:15.867Z,616
2017-07-07T07:40:24.782Z,628
2017-07-07T07:41:33.784Z,608
2017-07-07T07:42:42.701Z,640
2017-07-07T07:43:51.621Z,604
2017-07-07T07:45:00.539Z,656
2017-07-07T07:46:09.458Z,680
2017-07-07T07:47:18.383Z,744
2017-07-07T07:48:27.301Z,820
2017-07-07T07:49:36.229Z,900
2017-07-07T07:50:45.227Z,952
2017-07-07T07:51:54.155Z,1212
2017-07-07T07:53:03.075Z,1340
2017-07-07T07:54:11.995Z,1216
2017-07-07T07:55:20.918Z,1208
2017-07-07T07:56:29.835Z,996
2017-07-07T07:57:38.764Z,864
2017-07-07T07:58:47.680Z,664
2017-07-07T07:59:56.607Z,564
2017-07-07T08:01:05.527Z,484
2017-07-07T08:02:14.444Z,468
2017-07-07T08:03:23.367Z,452
2017-07-07T08:04:32.285Z,508
2017-07-07T08:05:41.210Z,508
2017-07-07T08:06:50.128Z,520
2017-07-07T08:07:59.050Z,560
2017-07-07T08:09:07.973Z,448
2017-07-07T08:10:16.895Z,408
2017-07-07T08:11:25.821Z,412
2017-07-07T08:12:34.833Z,400
2017-07-07T08:13:43.754Z,456
2017-07-07T08:14:52.670Z,520
2017-07-07T08:16:01.592Z,560
2017-07-07T08:17:10.513Z,716
2017-07-07T08:18:19.426Z,720
2017-07-07T08:19:28.344Z,908
2017-07-07T08:20:37.267Z,832
2017-07-07T08:21:46.197Z,724
2017-07-07T08:22:55.117Z,744
2017-07-07T08:24:04.037Z,764
2017-07-07T08:25:12.966Z,812
2017-07-07T08:26:21.886Z,720
2017-07-07T08:27:30.813Z,720
2017-07-07T08:28:39.730Z,792
2017-07-07T08:29:48.649Z,760
2017-07-07T08:30:57.577Z,828
2017-07-07T08:32:06.504Z,816
2017-07-07T08:33:15.421Z,784
2017-07-07T08:34:24.430Z,812
2017-07-07T08:35:33.353Z,1008
2017-07-07T08:36:42.268Z,1072
2017-07-07T08:37:51.190Z,1444
2017-07-07T08:39:00.121Z,1564
2017-07-07T08:40:09.094Z,1340
2017-07-07T08:41:17.972Z,1128
2017-07-07T08:42:26.898Z,964
2017-07-07T08:43:35.809Z,952
2017-07-07T08:44:44.727Z,1000
2017-07-07T08:45:53.639Z,1100
2017-07-07T08:47:02.558Z,1152
2017-07-07T08:48:11.477Z,1032
2017-07-07T08:49:20.400Z,836
2017-07-07T08:50:29.322Z,756
2017-07-07T08:51:38.248Z,704
2017-07-07T08:52:47.254Z,588
2017-07-07T08:53:56.176Z,516
2017-07-07T08:55:05.431Z,488
2017-07-07T08:56:14.364Z,472
2017-07-07T08:57:23.359Z,468
2017-07-07T08:58:32.620Z,456
2017-07-07T08:59:41.541Z,428
2017-07-07T09:00:50.460Z,396
2017-07-07T09:01:59.384Z,484
2017-07-07T09:03:08.303Z,504
2017-07-07T09:04:17.222Z,500
2017-07-07T09:05:26.153Z,516
2017-07-07T09:06:35.072Z,580
2017-07-07T09:07:43.996Z,612
2017-07-07T09:08:52.929Z,652
2017-07-07T09:10:01.860Z,564
2017-07-07T09:11:10.775Z,568
2017-07-07T09:12:20.029Z,572
2017-07-07T09:13:28.958Z,532
2017-07-07T09:14:37.881Z,600
2017-07-07T09:15:46.805Z,712
2017-07-07T09:16:55.806Z,832
2017-07-07T09:18:04.736Z,1008
2017-07-07T09:19:13.656Z,1176
2017-07-07T09:20:22.583Z,1332
2017-07-07T09:21:31.504Z,1412
2017-07-07T09:22:40.423Z,1444
2017-07-07T09:23:49.341Z,1460
2017-07-07T09:24:58.266Z,1464
2017-07-07T09:26:07.187Z,1508
2017-07-07T09:27:16.111Z,1476
2017-07-07T09:28:25.036Z,1452
2017-07-07T09:29:33.962Z,1404
2017-07-07T09:30:42.886Z,1424
2017-07-07T09:31:51.808Z,1528
2017-07-07T09:33:00.730Z,1620
2017-07-07T09:34:09.662Z,1736
2017-07-07T09:35:18.586Z,1864
2017-07-07T09:36:27.836Z,1932
2017-07-07T09:37:36.756Z,2244
2017-07-07T09:38:45.672Z,2688
2017-07-07T09:39:54.591Z,3268
2017-07-07T09:41:03.513Z,3648
2017-07-07T09:42:12.436Z,2808
2017-07-07T09:43:21.357Z,2344
2017-07-07T09:44:30.280Z,2324
2017-07-07T09:45:39.909Z,2340
2017-07-07T09:46:48.829Z,2480
2017-07-07T09:47:57.752Z,2688
2017-07-07T09:49:06.676Z,2756
2017-07-07T09:50:15.686Z,2836
2017-07-07T09:51:24.607Z,2824
2017-07-07T09:52:33.535Z,2584
2017-07-07T09:53:42.458Z,2444
2017-07-07T09:54:51.385Z,2508
2017-07-07T09:56:00.320Z,2524
2017-07-07T09:57:09.232Z,2576
2017-07-07T09:58:18.153Z,2520
2017-07-07T09:59:27.084Z,2340
2017-07-07T10:00:36.003Z,2120
2017-07-07T10:01:44.930Z,2060
2017-07-07T10:02:56.147Z,1964
2017-07-07T10:04:05.068Z,1900
2017-07-07T10:05:13.986Z,1800
2017-07-07T10:06:22.902Z,1588
2017-07-07T10:07:31.827Z,1544
2017-07-07T10:08:40.754Z,1720
2017-07-07T10:09:49.673Z,1932
2017-07-07T10:10:58.595Z,2208
2017-07-07T10:12:07.635Z,2564
2017-07-07T10:13:16.797Z,2708
2017-07-07T10:14:25.716Z,3116
2017-07-07T10:15:34.639Z,3616
2017-07-07T10:16:43.562Z,4388
2017-07-07T10:17:52.485Z,4664
2017-07-07T10:19:01.469Z,4576
2017-07-07T10:20:10.348Z,4436
2017-07-07T10:21:19.267Z,4420
2017-07-07T10:22:28.188Z,4296
2017-07-07T10:23:37.110Z,4236
2017-07-07T10:24:46.040Z,2916
2017-07-07T10:25:54.973Z,2668
2017-07-07T10:27:03.889Z,2776
2017-07-07T10:28:12.807Z,2448
2017-07-07T10:29:21.738Z,2320
2017-07-07T10:30:30.659Z,2300
2017-07-07T10:31:39.576Z,2284
2017-07-07T10:32:48.500Z,2232
2017-07-07T10:33:57.428Z,2216
2017-07-07T10:35:06.359Z,2192
2017-07-07T10:36:15.294Z,2176
2017-07-07T10:37:24.219Z,2172
2017-07-07T10:38:33.149Z,2152
2017-07-07T10:39:42.071Z,2140
2017-07-07T10:40:50.997Z,2144
2017-07-07T10:42:00.241Z,2104
2017-07-07T10:43:09.165Z,2072
2017-07-07T10:44:18.531Z,2120
2017-07-07T10:45:27.796Z,2068
2017-07-07T10:46:36.721Z,1980
2017-07-07T10:47:45.644Z,1944
2017-07-07T10:48:54.569Z,2012
2017-07-07T10:50:03.494Z,2060
2017-07-07T10:51:12.425Z,1964
2017-07-07T10:52:21.345Z,1972
2017-07-07T10:53:30.272Z,1960
2017-07-07T10:54:39.200Z,1940
2017-07-07T10:55:48.126Z,1972
2017-07-07T10:56:57.045Z,1948
2017-07-07T10:58:05.967Z,1980
2017-07-07T10:59:14.892Z,2008
2017-07-07T11:00:23.816Z,2012
2017-07-07T11:01:32.732Z,1984
2017-07-07T11:02:41.655Z,1952
2017-07-07T11:03:50.584Z,1960
2017-07-07T11:04:59.506Z,1976
2017-07-07T11:06:08.435Z,2000
2017-07-07T11:07:17.353Z,2000
2017-07-07T11:08:26.269Z,1948
2017-07-07T11:09:35.196Z,1956
2017-07-07T11:10:44.121Z,1964
2017-07-07T11:11:53.047Z,1928
2017-07-07T11:13:01.967Z,1856
2017-07-07T11:14:10.940Z,1864
2017-07-07T11:15:19.854Z,1844
2017-07-07T11:16:28.778Z,1852
2017-07-07T11:17:37.699Z,1776
2017-07-07T11:18:46.614Z,1740
2017-07-07T11:19:55.531Z,1768
2017-07-07T11:21:04.454Z,1784
2017-07-07T11:22:13.380Z,1892
2017-07-07T11:23:22.296Z,1824
2017-07-07T11:24:31.216Z,1760
2017-07-07T11:25:40.134Z,1700
2017-07-07T11:26:49.054Z,1644
2017-07-07T11:27:58.301Z,1600
2017-07-07T11:29:07.302Z,1608
2017-07-07T11:30:16.221Z,1580
2017-07-07T11:31:25.144Z,1652
2017-07-07T11:32:34.060Z,1716
2017-07-07T11:33:43.068Z,1776
2017-07-07T11:34:51.985Z,1804
2017-07-07T11:36:00.911Z,1696
2017-07-07T11:37:09.830Z,1612
2017-07-07T11:38:18.755Z,1552
2017-07-07T11:39:27.677Z,1528
2017-07-07T11:40:36.601Z,1520
2017-07-07T11:41:45.518Z,1468
2017-07-07T11:42:54.445Z,1408
2017-07-07T11:44:03.371Z,1392
2017-07-07T11:45:12.288Z,1400
2017-07-07T11:46:21.215Z,1448
2017-07-07T11:47:30.142Z,1396
2017-07-07T11:48:39.071Z,1416
2017-07-07T11:49:47.994Z,1400
2017-07-07T11:50:56.921Z,1384
2017-07-07T11:52:05.852Z,1408
2017-07-07T11:53:14.780Z,1432
2017-07-07T11:54:23.699Z,1512
2017-07-07T11:55:32.624Z,1496
2017-07-07T11:56:41.550Z,1524
2017-07-07T11:57:50.479Z,1524
2017-07-07T11:58:59.406Z,1584
2017-07-07T12:00:08.327Z,1572
2017-07-07T12:01:17.242Z,1592
2017-07-07T12:02:26.162Z,1636
2017-07-07T12:03:35.176Z,1540
2017-07-07T12:04:44.102Z,2236
2017-07-07T12:05:53.026Z,1740
2017-07-07T12:07:01.952Z,1732
2017-07-07T12:08:10.877Z,1768
2017-07-07T12:09:19.804Z,1916
2017-07-07T12:10:28.727Z,1872
2017-07-07T12:11:37.648Z,1788
2017-07-07T12:12:46.660Z,1648
2017-07-07T12:13:55.584Z,1912
2017-07-07T12:15:04.507Z,1856
2017-07-07T12:16:13.425Z,1612
2017-07-07T12:17:22.343Z,1580
2017-07-07T12:18:31.354Z,1600
2017-07-07T12:19:40.284Z,1796
2017-07-07T12:20:49.211Z,1692
2017-07-07T12:21:58.133Z,1660
2017-07-07T12:23:07.052Z,1660
2017-07-07T12:24:15.977Z,1688
2017-07-07T12:25:24.981Z,1612
2017-07-07T12:26:33.902Z,1672
2017-07-07T12:27:42.826Z,1280
2017-07-07T12:28:51.748Z,1744
2017-07-07T12:30:00.671Z,1636
2017-07-07T12:31:09.589Z,1580
2017-07-07T12:32:18.514Z,1564
2017-07-07T12:33:27.438Z,1588
2017-07-07T12:34:36.365Z,1556
2017-07-07T12:35:45.294Z,1564
2017-07-07T12:36:54.213Z,1572
2017-07-07T12:38:03.139Z,1860
2017-07-07T12:39:12.067Z,1712
2017-07-07T12:40:20.997Z,2232
2017-07-07T12:41:29.929Z,2584
2017-07-07T12:42:38.856Z,1752
2017-07-07T12:43:47.785Z,1480
2017-07-07T12:44:56.712Z,1424
2017-07-07T12:46:05.642Z,1404
2017-07-07T12:47:14.562Z,1404
2017-07-07T12:48:23.490Z,1444
2017-07-07T12:49:32.415Z,1444
2017-07-07T12:50:41.435Z,1424
2017-07-07T12:51:50.358Z,1456
2017-07-07T12:52:59.287Z,1496
2017-07-07T12:54:08.208Z,1496
2017-07-07T12:55:17.131Z,1472
2017-07-07T12:56:26.054Z,1484
2017-07-07T12:57:34.977Z,1492
2017-07-07T12:58:43.898Z,1516
2017-07-07T12:59:52.826Z,1424
2017-07-07T13:01:01.748Z,1552
2017-07-07T13:02:10.672Z,1524
2017-07-07T13:03:19.927Z,1584
2017-07-07T13:04:28.859Z,1536
2017-07-07T13:05:37.785Z,1536
2017-07-07T13:06:46.728Z,1512
2017-07-07T13:07:55.965Z,1476
2017-07-07T13:09:04.979Z,888
2017-07-07T13:10:13.899Z,1520
2017-07-07T13:11:22.829Z,1528
2017-07-07T13:12:31.761Z,1544
2017-07-07T13:13:40.680Z,872
2017-07-07T13:14:49.606Z,2020
2017-07-07T13:15:58.535Z,2144
2017-07-07T13:17:07.462Z,2056
2017-07-07T13:18:16.381Z,2692
2017-07-07T13:19:25.310Z,1900
2017-07-07T13:20:34.238Z,1588
2017-07-07T13:21:43.159Z,1488
2017-07-07T13:22:52.088Z,1464
2017-07-07T13:24:01.010Z,1472
2017-07-07T13:25:09.929Z,756
2017-07-07T13:26:18.856Z,880
2017-07-07T13:27:27.773Z,916
2017-07-07T13:28:36.695Z,784
2017-07-07T13:29:45.619Z,932
2017-07-07T13:30:54.540Z,2588
2017-07-07T13:32:03.469Z,2076
2017-07-07T13:33:12.399Z,2012
2017-07-07T13:34:21.412Z,2432
2017-07-07T13:35:30.339Z,2352
2017-07-07T13:36:39.271Z,1928
2017-07-07T13:37:48.194Z,1788
2017-07-07T13:38:57.124Z,1732
2017-07-07T13:40:06.051Z,1204
2017-07-07T13:41:14.979Z,2420
2017-07-07T13:42:23.902Z,2844
2017-07-07T13:43:32.825Z,2056
2017-07-07T13:44:41.755Z,1192
2017-07-07T13:45:50.686Z,1092
2017-07-07T13:46:59.605Z,1056
2017-07-07T13:48:08.524Z,1464
2017-07-07T13:49:17.451Z,1764
2017-07-07T13:50:26.372Z,1744
2017-07-07T13:51:35.354Z,1468
2017-07-07T13:52:44.223Z,1604
2017-07-07T13:53:53.151Z,1540
2017-07-07T13:55:02.077Z,1508
2017-07-07T13:56:11.089Z,1508
2017-07-07T13:57:20.007Z,1160
2017-07-07T13:58:28.934Z,1080
2017-07-07T13:59:37.858Z,1272
2017-07-07T14:00:46.778Z,1684
2017-07-07T14:01:55.704Z,2500
2017-07-07T14:03:04.633Z,2076
2017-07-07T14:04:13.562Z,1904
2017-07-07T14:05:22.491Z,1708
2017-07-07T14:06:31.419Z,1860
2017-07-07T14:07:40.345Z,1504
2017-07-07T14:08:49.274Z,1500
2017-07-07T14:09:58.195Z,1680
2017-07-07T14:11:07.129Z,2492
2017-07-07T14:12:16.054Z,2392
2017-07-07T14:13:24.979Z,2020
2017-07-07T14:14:33.900Z,1860
2017-07-07T14:15:42.827Z,1360
2017-07-07T14:16:51.751Z,1048
2017-07-07T14:18:00.674Z,1076
2017-07-07T14:19:09.609Z,1136
2017-07-07T14:20:18.539Z,1180
2017-07-07T14:21:27.467Z,1524
2017-07-07T14:22:36.387Z,1368
2017-07-07T14:23:45.314Z,1324
2017-07-07T14:24:54.250Z,1988
2017-07-07T14:26:03.170Z,2060
2017-07-07T14:27:12.093Z,2004
2017-07-07T14:28:21.016Z,2168
2017-07-07T14:29:29.942Z,2008
2017-07-07T14:30:38.956Z,2192
2017-07-07T14:31:47.877Z,2228
2017-07-07T14:32:56.804Z,2216
2017-07-07T14:34:05.737Z,2316
2017-07-07T14:35:14.669Z,2352
2017-07-07T14:36:23.587Z,2424
2017-07-07T14:37:32.516Z,2424
2017-07-07T14:38:41.440Z,2412
2017-07-07T14:39:50.361Z,2296
2017-07-07T14:40:59.289Z,1768
2017-07-07T14:42:08.212Z,1588
2017-07-07T14:43:17.139Z,1832
2017-07-07T14:44:26.061Z,1808
2017-07-07T14:45:34.988Z,1820
2017-07-07T14:46:43.917Z,1712
2017-07-07T14:47:52.847Z,1664
2017-07-07T14:49:01.772Z,1636
2017-07-07T14:50:11.038Z,1392
2017-07-07T14:51:19.966Z,1028
2017-07-07T14:52:28.880Z,900
2017-07-07T14:53:37.804Z,888
2017-07-07T14:54:46.734Z,836
2017-07-07T14:55:55.664Z,1108
2017-07-07T14:57:04.588Z,1096
2017-07-07T14:58:13.510Z,692
2017-07-07T14:59:22.437Z,840
2017-07-07T15:00:31.361Z,1020
2017-07-07T15:01:40.288Z,1428
2017-07-07T15:02:49.212Z,1944
2017-07-07T15:03:58.143Z,1876
2017-07-07T15:05:07.067Z,1768
2017-07-07T15:06:15.996Z,1528
2017-07-07T15:07:24.916Z,1620
2017-07-07T15:08:33.847Z,1444
2017-07-07T15:09:42.765Z,1452
2017-07-07T15:10:51.691Z,1752
2017-07-07T15:12:00.616Z,1316
2017-07-07T15:13:09.535Z,888
2017-07-07T15:14:18.458Z,672
2017-07-07T15:15:27.391Z,616
2017-07-07T15:16:36.657Z,456
2017-07-07T15:17:45.577Z,352
2017-07-07T15:18:54.503Z,280
2017-07-07T15:20:03.430Z,276
2017-07-07T15:21:12.355Z,276
2017-07-07T15:22:21.268Z,384
2017-07-07T15:23:30.194Z,480
2017-07-07T15:24:39.114Z,484
2017-07-07T15:25:48.041Z,360
2017-07-07T15:26:57.048Z,316
2017-07-07T15:28:05.968Z,344
2017-07-07T15:29:15.218Z,400
2017-07-07T15:30:24.146Z,468
2017-07-07T15:31:33.069Z,440
2017-07-07T15:32:41.983Z,380
2017-07-07T15:33:50.909Z,352
2017-07-07T15:34:59.828Z,324
2017-07-07T15:36:08.755Z,268
2017-07-07T15:37:17.677Z,216
2017-07-07T15:38:26.602Z,152
2017-07-07T15:39:35.530Z,76
2017-07-07T15:40:44.548Z,36
2017-07-07T15:41:53.463Z,20
2017-07-07T15:43:02.393Z,16
2017-07-07T15:44:11.314Z,20
2017-07-07T15:45:20.240Z,16
2017-07-07T15:46:29.172Z,20
2017-07-07T15:47:38.093Z,24
2017-07-07T15:48:47.011Z,36